createdAt,value
2023-05-08T00:02:17.650Z,12.70
2023-05-08T00:04:46.242Z,12.70
2023-05-08T00:07:15.142Z,12.70
2023-05-08T00:09:43.708Z,12.70
2023-05-08T00:12:13.651Z,12.70
2023-05-08T00:14:42.204Z,12.70
2023-05-08T00:17:10.816Z,12.70
2023-05-08T00:19:39.418Z,12.70
2023-05-08T00:22:07.977Z,12.80
2023-05-08T00:24:36.515Z,12.80
2023-05-08T00:27:05.083Z,12.90
2023-05-08T00:29:35.140Z,12.80
2023-05-08T00:32:04.027Z,12.70
2023-05-08T00:34:32.751Z,12.70
2023-05-08T00:37:01.267Z,12.80
2023-05-08T00:39:29.952Z,12.60
2023-05-08T00:41:58.504Z,12.70
2023-05-08T00:44:27.388Z,12.70
2023-05-08T00:46:57.623Z,12.80
2023-05-08T00:49:26.999Z,12.70
2023-05-08T00:51:57.542Z,12.70
2023-05-08T00:54:27.980Z,12.60
2023-05-08T00:56:57.037Z,12.80
2023-05-08T00:59:27.009Z,12.60
2023-05-08T01:01:57.103Z,12.60
2023-05-08T01:04:27.597Z,12.60
2023-05-08T01:06:56.360Z,12.60
2023-05-08T01:09:24.984Z,12.50
2023-05-08T01:11:59.440Z,12.50
2023-05-08T01:14:37.527Z,12.40
2023-05-08T01:17:13.001Z,12.30
2023-05-08T01:19:58.069Z,12.40
2023-05-08T01:22:45.318Z,12.40
2023-05-08T01:25:47.506Z,12.40
2023-05-08T01:28:49.292Z,12.30
2023-05-08T01:31:26.520Z,12.30
2023-05-08T01:34:04.315Z,12.30
2023-05-08T01:36:40.984Z,12.20
2023-05-08T01:39:16.640Z,12.20
2023-05-08T01:41:51.875Z,12.20
2023-05-08T01:44:23.694Z,12.20
2023-05-08T01:46:53.304Z,12.20
2023-05-08T01:49:28.031Z,12.10
2023-05-08T01:52:02.088Z,12.00
2023-05-08T01:54:37.300Z,12.00
2023-05-08T01:57:10.425Z,12.00
2023-05-08T01:59:43.051Z,11.90
2023-05-08T02:02:13.529Z,11.80
2023-05-08T02:04:45.445Z,11.80
2023-05-08T02:07:14.173Z,11.70
2023-05-08T02:09:43.948Z,11.70
2023-05-08T02:12:14.636Z,11.60
2023-05-08T02:14:44.741Z,11.70
2023-05-08T02:17:18.319Z,11.60
2023-05-08T02:19:49.280Z,11.60
2023-05-08T02:22:19.167Z,11.50
2023-05-08T02:24:48.128Z,11.60
2023-05-08T02:27:17.675Z,11.60
2023-05-08T02:29:46.327Z,11.50
2023-05-08T02:32:16.757Z,11.50
2023-05-08T02:34:55.235Z,11.50
2023-05-08T02:37:34.268Z,11.60
2023-05-08T02:40:05.200Z,11.70
2023-05-08T02:42:34.022Z,11.50
2023-05-08T02:45:02.584Z,11.50
2023-05-08T02:47:40.402Z,11.50
2023-05-08T02:50:16.306Z,11.50
2023-05-08T02:52:49.437Z,11.50
2023-05-08T02:55:30.693Z,11.60
2023-05-08T02:58:09.122Z,11.50
2023-05-08T03:00:44.450Z,11.50
2023-05-08T03:03:19.078Z,11.50
2023-05-08T03:05:53.746Z,11.50
2023-05-08T03:08:28.997Z,11.50
2023-05-08T03:11:02.299Z,11.40
2023-05-08T03:13:35.499Z,11.40
2023-05-08T03:16:06.438Z,11.40
2023-05-08T03:18:37.517Z,11.40
2023-05-08T03:21:08.385Z,11.30
2023-05-08T03:23:41.679Z,11.40
2023-05-08T03:26:11.063Z,11.40
2023-05-08T03:28:40.284Z,11.50
2023-05-08T03:31:09.819Z,11.50
2023-05-08T03:33:39.912Z,11.50
2023-05-08T03:36:08.773Z,11.50
2023-05-08T03:38:38.813Z,11.50
2023-05-08T03:41:09.203Z,11.60
2023-05-08T03:43:39.053Z,11.60
2023-05-08T03:46:07.920Z,11.60
2023-05-08T03:48:37.577Z,11.50
2023-05-08T03:51:06.846Z,11.50
2023-05-08T03:53:39.613Z,11.50
2023-05-08T03:56:08.321Z,11.50
2023-05-08T03:58:42.569Z,11.50
2023-05-08T04:01:19.753Z,11.50
2023-05-08T04:03:56.912Z,11.50
2023-05-08T04:06:38.843Z,11.50
2023-05-08T04:09:22.090Z,11.40
2023-05-08T04:11:58.992Z,11.40
2023-05-08T04:14:31.611Z,11.50
2023-05-08T04:17:07.113Z,11.40
2023-05-08T04:19:39.746Z,11.40
2023-05-08T04:22:10.052Z,11.40
2023-05-08T04:24:44.740Z,11.30
2023-05-08T04:27:14.548Z,11.30
2023-05-08T04:29:43.682Z,11.30
2023-05-08T04:32:13.506Z,11.30
2023-05-08T04:34:42.652Z,11.30
2023-05-08T04:37:26.729Z,11.20
2023-05-08T04:39:57.278Z,11.20
2023-05-08T04:42:26.960Z,11.20
2023-05-08T04:44:58.224Z,11.20
2023-05-08T04:47:26.815Z,11.30
2023-05-08T04:49:55.400Z,11.30
2023-05-08T04:52:24.124Z,11.30
2023-05-08T04:54:52.706Z,11.30
2023-05-08T04:57:22.792Z,11.30
2023-05-08T04:59:51.495Z,11.40
2023-05-08T05:02:20.490Z,11.40
2023-05-08T05:04:51.162Z,11.40
2023-05-08T05:07:19.967Z,11.50
2023-05-08T05:09:48.850Z,11.50
2023-05-08T05:12:17.605Z,11.60
2023-05-08T05:14:47.503Z,11.70
2023-05-08T05:17:16.325Z,12.00
2023-05-08T05:19:44.863Z,12.10
2023-05-08T05:22:13.486Z,12.30
2023-05-08T05:24:42.222Z,12.50
2023-05-08T05:27:10.928Z,12.70
2023-05-08T05:29:39.904Z,12.80
2023-05-08T05:32:11.498Z,12.90
2023-05-08T05:34:40.083Z,13.00
2023-05-08T05:37:09.173Z,13.20
2023-05-08T05:39:37.889Z,13.10
2023-05-08T05:42:07.339Z,13.30
2023-05-08T05:44:35.959Z,13.40
2023-05-08T05:47:06.092Z,13.50
2023-05-08T05:49:36.212Z,13.60
2023-05-08T05:52:05.682Z,13.70
2023-05-08T05:54:34.299Z,13.90
2023-05-08T05:57:03.409Z,14.10
2023-05-08T05:59:32.240Z,14.40
2023-05-08T06:02:01.015Z,14.90
2023-05-08T06:04:29.718Z,15.70
2023-05-08T06:06:59.789Z,16.40
2023-05-08T06:09:28.803Z,16.90
2023-05-08T06:11:57.397Z,17.10
2023-05-08T06:14:26.154Z,17.10
2023-05-08T06:16:55.064Z,16.90
2023-05-08T06:19:24.509Z,16.70
2023-05-08T06:21:53.390Z,16.50
2023-05-08T06:24:23.354Z,16.50
2023-05-08T06:26:51.886Z,16.60
2023-05-08T06:29:20.472Z,16.70
2023-05-08T06:31:49.028Z,17.00
2023-05-08T06:34:17.566Z,17.40
2023-05-08T06:36:46.217Z,17.80
2023-05-08T06:39:14.745Z,18.30
2023-05-08T06:41:45.044Z,18.70
2023-05-08T06:44:14.045Z,19.00
2023-05-08T06:46:42.785Z,19.10
2023-05-08T06:49:11.427Z,19.40
2023-05-08T06:51:40.209Z,19.60
2023-05-08T06:54:08.768Z,20.10
2023-05-08T06:56:37.329Z,20.80
2023-05-08T06:59:08.856Z,21.50
2023-05-08T07:01:38.652Z,22.20
2023-05-08T07:04:07.427Z,22.70
2023-05-08T07:06:36.037Z,23.00
2023-05-08T07:09:04.703Z,23.00
2023-05-08T07:11:33.304Z,22.80
2023-05-08T07:14:01.872Z,22.60
2023-05-08T07:16:31.841Z,22.20
2023-05-08T07:19:00.619Z,21.80
2023-05-08T07:21:29.613Z,21.30
2023-05-08T07:23:58.314Z,20.90
2023-05-08T07:26:27.330Z,20.50
2023-05-08T07:28:55.997Z,20.20
2023-05-08T07:31:24.714Z,20.00
2023-05-08T07:33:54.668Z,19.80
2023-05-08T07:36:23.837Z,19.60
2023-05-08T07:38:52.450Z,19.50
2023-05-08T07:41:21.084Z,19.40
2023-05-08T07:43:49.950Z,19.20
2023-05-08T07:46:19.023Z,19.10
2023-05-08T07:48:47.683Z,19.10
2023-05-08T07:51:17.726Z,19.10
2023-05-08T07:53:48.680Z,19.20
2023-05-08T07:56:17.501Z,19.20
2023-05-08T07:58:47.848Z,19.30
2023-05-08T08:01:18.161Z,19.40
2023-05-08T08:03:47.102Z,19.60
2023-05-08T08:06:18.551Z,20.10
2023-05-08T08:08:47.194Z,20.50
2023-05-08T08:11:15.854Z,20.60
2023-05-08T08:13:44.473Z,20.60
2023-05-08T08:16:13.127Z,20.60
2023-05-08T08:18:41.743Z,20.40
2023-05-08T08:21:10.420Z,20.30
2023-05-08T08:23:40.591Z,20.10
2023-05-08T08:26:09.106Z,19.90
2023-05-08T08:28:37.677Z,19.80
2023-05-08T08:31:06.320Z,19.70
2023-05-08T08:33:34.959Z,19.70
2023-05-08T08:36:03.738Z,19.70
2023-05-08T08:38:32.382Z,19.80
2023-05-08T08:41:02.597Z,19.90
2023-05-08T08:43:31.897Z,20.10
2023-05-08T08:46:01.198Z,20.20
2023-05-08T08:48:31.180Z,20.40
2023-05-08T08:51:03.871Z,20.80
2023-05-08T08:53:38.396Z,20.90
2023-05-08T08:56:09.860Z,21.10
2023-05-08T08:58:43.140Z,21.20
2023-05-08T09:01:17.371Z,21.30
2023-05-08T09:03:47.657Z,21.20
2023-05-08T09:06:19.553Z,21.20
2023-05-08T09:08:48.959Z,21.20
2023-05-08T09:11:19.045Z,21.20
2023-05-08T09:13:48.008Z,21.20
2023-05-08T09:16:16.805Z,21.20
2023-05-08T09:18:45.666Z,21.40
2023-05-08T09:21:14.467Z,21.70
2023-05-08T09:23:59.802Z,22.10
2023-05-08T09:26:32.407Z,22.30
2023-05-08T09:29:12.048Z,22.40
2023-05-08T09:31:42.028Z,22.30
2023-05-08T09:34:11.402Z,22.40
2023-05-08T09:36:42.016Z,22.80
2023-05-08T09:39:13.596Z,23.20
2023-05-08T09:41:58.935Z,23.90
2023-05-08T09:44:27.467Z,24.60
2023-05-08T09:47:12.209Z,25.10
2023-05-08T09:49:40.898Z,25.50
2023-05-08T09:52:16.346Z,25.50
2023-05-08T09:54:44.937Z,25.30
2023-05-08T09:57:14.979Z,24.90
2023-05-08T09:59:43.528Z,24.50
2023-05-08T10:02:16.098Z,24.20
2023-05-08T10:04:44.754Z,24.20
2023-05-08T10:07:13.400Z,24.60
2023-05-08T10:09:58.364Z,25.10
2023-05-08T10:12:29.322Z,25.70
2023-05-08T10:14:58.394Z,26.40
2023-05-08T10:17:33.175Z,26.80
2023-05-08T10:20:06.141Z,26.90
2023-05-08T10:22:39.835Z,26.70
2023-05-08T10:25:15.844Z,26.30
2023-05-08T10:27:50.930Z,25.80
2023-05-08T10:30:24.733Z,25.20
2023-05-08T10:32:55.464Z,24.70
2023-05-08T10:35:24.280Z,24.40
2023-05-08T10:37:54.860Z,24.10
2023-05-08T10:40:23.510Z,23.90
2023-05-08T10:42:53.602Z,23.70
2023-05-08T10:45:22.123Z,23.60
2023-05-08T10:48:00.654Z,23.50
2023-05-08T10:50:39.706Z,23.50
2023-05-08T10:53:12.911Z,23.40
2023-05-08T10:55:45.660Z,23.40
2023-05-08T10:58:16.572Z,23.60
2023-05-08T11:01:16.651Z,23.60
2023-05-08T11:03:49.580Z,23.60
2023-05-08T11:06:18.826Z,23.60
2023-05-08T11:08:54.469Z,23.50
2023-05-08T11:11:29.616Z,23.40
2023-05-08T11:14:13.090Z,23.40
2023-05-08T11:17:07.099Z,23.30
2023-05-08T11:19:36.858Z,23.30
2023-05-08T11:22:27.056Z,23.20
2023-05-08T11:24:58.474Z,23.10
2023-05-08T11:27:34.539Z,22.90
2023-05-08T11:30:35.931Z,22.70
2023-05-08T11:33:17.828Z,22.60
2023-05-08T11:35:49.098Z,22.60
2023-05-08T11:38:20.053Z,22.70
2023-05-08T11:40:50.136Z,22.90
2023-05-08T11:43:41.671Z,23.20
2023-05-08T11:46:17.524Z,23.40
2023-05-08T11:48:46.382Z,23.70
2023-05-08T11:51:18.004Z,23.80
2023-05-08T11:53:46.937Z,24.00
2023-05-08T11:56:15.887Z,24.20
2023-05-08T11:58:44.574Z,24.20
2023-05-08T12:01:20.785Z,24.10
2023-05-08T12:03:49.451Z,24.00
2023-05-08T12:06:20.279Z,23.90
2023-05-08T12:08:48.957Z,23.90
2023-05-08T12:11:24.824Z,23.90
2023-05-08T12:13:54.158Z,23.90
2023-05-08T12:16:25.900Z,23.90
2023-05-08T12:18:57.364Z,24.00
2023-05-08T12:21:27.513Z,24.20
2023-05-08T12:23:56.381Z,24.50
2023-05-08T12:26:24.998Z,24.90
2023-05-08T12:28:56.802Z,25.00
2023-05-08T12:31:27.033Z,25.00
2023-05-08T12:33:56.325Z,24.90
2023-05-08T12:36:24.876Z,24.90
2023-05-08T12:38:53.368Z,24.90
2023-05-08T12:41:26.309Z,25.20
2023-05-08T12:43:54.930Z,25.50
2023-05-08T12:46:23.491Z,25.90
2023-05-08T12:49:02.594Z,26.20
2023-05-08T12:51:32.236Z,26.30
2023-05-08T12:54:00.763Z,26.20
2023-05-08T12:56:29.379Z,26.10
2023-05-08T12:59:00.687Z,25.90
2023-05-08T13:01:29.362Z,25.60
2023-05-08T13:04:02.590Z,25.40
2023-05-08T13:06:32.756Z,25.30
2023-05-08T13:09:01.335Z,25.00
2023-05-08T13:11:31.577Z,24.70
2023-05-08T13:14:00.244Z,24.50
2023-05-08T13:16:29.114Z,24.40
2023-05-08T13:18:59.095Z,24.40
2023-05-08T13:21:28.076Z,24.30
2023-05-08T13:23:57.263Z,24.20
2023-05-08T13:26:26.328Z,24.10
2023-05-08T13:28:56.616Z,24.00
2023-05-08T13:31:25.512Z,23.90
2023-05-08T13:33:54.055Z,23.80
2023-05-08T13:36:24.955Z,23.80
2023-05-08T13:38:54.748Z,23.70
2023-05-08T13:41:23.324Z,23.70
2023-05-08T13:43:52.094Z,23.70
2023-05-08T13:46:20.736Z,23.80
2023-05-08T13:48:49.357Z,23.80
2023-05-08T13:51:17.996Z,23.70
2023-05-08T13:53:47.881Z,23.70
2023-05-08T13:56:16.426Z,23.70
2023-05-08T13:58:44.988Z,23.80
2023-05-08T14:01:25.797Z,24.00
2023-05-08T14:03:55.600Z,24.00
2023-05-08T14:06:24.465Z,24.00
2023-05-08T14:08:56.282Z,23.90
2023-05-08T14:11:25.745Z,23.80
2023-05-08T14:13:54.296Z,23.60
2023-05-08T14:16:23.085Z,23.40
2023-05-08T14:18:51.761Z,23.30
2023-05-08T14:21:20.359Z,23.10
2023-05-08T14:23:48.917Z,23.10
2023-05-08T14:26:18.780Z,23.10
2023-05-08T14:28:47.325Z,23.20
2023-05-08T14:31:15.910Z,23.30
2023-05-08T14:33:44.498Z,23.30
2023-05-08T14:36:13.264Z,23.40
2023-05-08T14:38:41.821Z,23.40
2023-05-08T14:41:10.359Z,23.40
2023-05-08T14:43:40.331Z,23.40
2023-05-08T14:46:08.961Z,23.60
2023-05-08T14:48:37.591Z,23.60
2023-05-08T14:51:06.476Z,23.60
2023-05-08T14:53:35.232Z,23.60
2023-05-08T14:56:04.140Z,23.60
2023-05-08T14:58:32.881Z,23.50
2023-05-08T15:01:02.868Z,23.30
2023-05-08T15:03:31.561Z,23.20
2023-05-08T15:06:00.272Z,23.20
2023-05-08T15:08:28.833Z,23.20
2023-05-08T15:10:57.414Z,23.30
2023-05-08T15:13:26.192Z,23.30
2023-05-08T15:15:54.777Z,23.30
2023-05-08T15:18:28.357Z,23.30
2023-05-08T15:20:57.987Z,23.10
2023-05-08T15:23:26.633Z,23.00
2023-05-08T15:25:55.484Z,22.90
2023-05-08T15:28:23.968Z,22.80
2023-05-08T15:30:52.459Z,22.80
2023-05-08T15:33:21.175Z,22.80
2023-05-08T15:35:51.212Z,22.80
2023-05-08T15:38:19.759Z,22.90
2023-05-08T15:40:48.359Z,23.00
2023-05-08T15:43:17.016Z,23.10
2023-05-08T15:45:45.538Z,23.10
2023-05-08T15:48:14.046Z,23.10
2023-05-08T15:50:43.626Z,23.10
2023-05-08T15:53:13.580Z,23.20
2023-05-08T15:55:42.255Z,23.10
2023-05-08T15:58:10.792Z,23.10
2023-05-08T16:00:44.802Z,23.00
2023-05-08T16:03:14.223Z,23.00
2023-05-08T16:05:42.977Z,22.90
2023-05-08T16:08:13.684Z,22.70
2023-05-08T16:10:42.588Z,22.60
2023-05-08T16:13:11.174Z,22.50
2023-05-08T16:15:39.853Z,22.40
2023-05-08T16:18:09.087Z,22.30
2023-05-08T16:20:37.646Z,22.30
2023-05-08T16:23:06.134Z,22.10
2023-05-08T16:25:36.113Z,22.10
2023-05-08T16:28:04.761Z,22.00
2023-05-08T16:30:33.285Z,21.90
2023-05-08T16:33:01.943Z,21.90
2023-05-08T16:35:32.852Z,21.90
2023-05-08T16:38:02.962Z,21.80
2023-05-08T16:40:32.282Z,21.80
2023-05-08T16:43:02.396Z,21.70
2023-05-08T16:45:31.013Z,21.60
2023-05-08T16:47:59.610Z,21.60
2023-05-08T16:50:28.207Z,21.50
2023-05-08T16:52:57.807Z,21.50
2023-05-08T16:55:26.486Z,21.50
2023-05-08T16:57:55.146Z,21.60
2023-05-08T17:00:25.476Z,21.50
2023-05-08T17:02:54.128Z,21.60
2023-05-08T17:05:23.148Z,21.60
2023-05-08T17:07:51.939Z,21.60
2023-05-08T17:10:20.500Z,21.70
2023-05-08T17:12:49.178Z,21.70
2023-05-08T17:15:17.826Z,21.70
2023-05-08T17:17:49.480Z,21.70
2023-05-08T17:20:18.373Z,21.60
2023-05-08T17:22:46.908Z,21.50
2023-05-08T17:25:15.583Z,21.40
2023-05-08T17:27:44.123Z,21.30
2023-05-08T17:30:14.825Z,21.20
2023-05-08T17:32:43.806Z,21.10
2023-05-08T17:35:13.749Z,21.00
2023-05-08T17:37:42.299Z,20.80
2023-05-08T17:40:12.053Z,20.70
2023-05-08T17:42:40.688Z,20.60
2023-05-08T17:45:09.797Z,20.40
2023-05-08T17:47:39.497Z,20.30
2023-05-08T17:50:09.353Z,20.20
2023-05-08T17:52:39.300Z,20.20
2023-05-08T17:55:09.062Z,20.10
2023-05-08T17:57:37.660Z,20.00
2023-05-08T18:00:07.728Z,19.90
2023-05-08T18:02:37.267Z,19.90
2023-05-08T18:05:06.557Z,19.90
2023-05-08T18:07:35.084Z,19.80
2023-05-08T18:10:05.427Z,19.70
2023-05-08T18:12:34.464Z,19.70
2023-05-08T18:15:06.666Z,19.60
2023-05-08T18:17:35.259Z,19.50
2023-05-08T18:20:07.617Z,19.50
2023-05-08T18:22:36.335Z,19.40
2023-05-08T18:25:06.981Z,19.30
2023-05-08T18:27:35.713Z,19.30
2023-05-08T18:30:04.898Z,19.20
2023-05-08T18:32:33.455Z,19.10
2023-05-08T18:35:02.052Z,19.00
2023-05-08T18:37:30.666Z,18.90
2023-05-08T18:39:59.233Z,18.90
2023-05-08T18:42:29.221Z,18.80
2023-05-08T18:44:57.853Z,18.70
2023-05-08T18:47:26.527Z,18.70
2023-05-08T18:49:56.799Z,18.60
2023-05-08T18:52:25.550Z,18.60
2023-05-08T18:54:54.103Z,18.50
2023-05-08T18:57:22.717Z,18.40
2023-05-08T18:59:52.669Z,18.30
2023-05-08T19:02:21.235Z,18.30
2023-05-08T19:04:49.800Z,18.20
2023-05-08T19:07:18.562Z,18.10
2023-05-08T19:09:47.349Z,18.00
2023-05-08T19:12:16.001Z,18.00
2023-05-08T19:14:44.697Z,17.90
2023-05-08T19:17:14.622Z,17.90
2023-05-08T19:19:43.137Z,17.80
2023-05-08T19:22:11.879Z,17.70
2023-05-08T19:24:40.475Z,17.60
2023-05-08T19:27:09.081Z,17.60
2023-05-08T19:29:37.686Z,17.40
2023-05-08T19:32:06.641Z,17.30
2023-05-08T19:34:38.444Z,17.30
2023-05-08T19:37:07.388Z,17.20
2023-05-08T19:39:36.027Z,17.10
2023-05-08T19:42:04.676Z,17.00
2023-05-08T19:44:33.650Z,17.00
2023-05-08T19:47:03.887Z,16.80
2023-05-08T19:49:32.916Z,16.80
2023-05-08T19:52:02.967Z,16.70
2023-05-08T19:54:31.660Z,16.60
2023-05-08T19:57:00.388Z,16.50
2023-05-08T19:59:28.905Z,16.40
2023-05-08T20:01:57.555Z,16.40
2023-05-08T20:04:26.283Z,16.30
2023-05-08T20:06:54.796Z,16.20
2023-05-08T20:09:24.707Z,16.10
2023-05-08T20:11:55.244Z,16.10
2023-05-08T20:14:23.885Z,16.00
2023-05-08T20:16:52.432Z,16.00
2023-05-08T20:19:21.022Z,15.90
2023-05-08T20:21:49.623Z,15.90
2023-05-08T20:24:18.197Z,15.80
2023-05-08T20:26:48.288Z,15.80
2023-05-08T20:29:16.848Z,16.00
2023-05-08T20:31:45.443Z,15.80
2023-05-08T20:34:14.038Z,15.80
2023-05-08T20:36:42.729Z,15.80
2023-05-08T20:39:11.400Z,15.80
2023-05-08T20:41:40.025Z,16.00
2023-05-08T20:44:11.230Z,15.90
2023-05-08T20:46:40.681Z,15.90
2023-05-08T20:49:09.282Z,15.90
2023-05-08T20:51:37.904Z,15.80
2023-05-08T20:54:06.562Z,16.10
2023-05-08T20:56:35.836Z,16.00
2023-05-08T20:59:04.609Z,16.00
2023-05-08T21:01:34.648Z,15.90
2023-05-08T21:04:03.222Z,16.00
2023-05-08T21:06:32.119Z,16.10
2023-05-08T21:09:00.691Z,16.00
2023-05-08T21:11:29.230Z,15.90
2023-05-08T21:13:57.772Z,16.00
2023-05-08T21:16:26.996Z,16.00
2023-05-08T21:18:58.443Z,15.90
2023-05-08T21:21:27.918Z,16.10
2023-05-08T21:23:56.467Z,15.90
2023-05-08T21:26:25.069Z,15.90
2023-05-08T21:28:54.086Z,15.80
2023-05-08T21:31:22.855Z,15.80
2023-05-08T21:33:51.949Z,15.80
2023-05-08T21:36:21.894Z,15.80
2023-05-08T21:38:50.562Z,15.80
2023-05-08T21:41:19.106Z,15.80
2023-05-08T21:43:47.609Z,15.70
2023-05-08T21:46:16.232Z,15.70
2023-05-08T21:48:44.875Z,15.70
2023-05-08T21:51:13.566Z,15.70
2023-05-08T21:53:43.520Z,15.70
2023-05-08T21:56:12.091Z,15.70
2023-05-08T21:58:40.660Z,15.70
2023-05-08T22:01:09.233Z,15.70
2023-05-08T22:03:37.853Z,15.70
2023-05-08T22:06:07.307Z,15.70
2023-05-08T22:08:35.924Z,15.70
2023-05-08T22:11:06.075Z,15.70
2023-05-08T22:13:34.647Z,15.60
2023-05-08T22:16:03.206Z,15.60
2023-05-08T22:18:31.732Z,15.60
2023-05-08T22:21:00.253Z,15.60
2023-05-08T22:23:28.872Z,15.60
2023-05-08T22:25:57.453Z,15.60
2023-05-08T22:28:27.616Z,15.60
2023-05-08T22:30:56.177Z,15.60
2023-05-08T22:33:24.703Z,15.60
2023-05-08T22:35:53.222Z,15.70
2023-05-08T22:38:21.736Z,15.60
2023-05-08T22:40:50.304Z,15.60
2023-05-08T22:43:18.969Z,15.60
2023-05-08T22:45:48.886Z,15.50
2023-05-08T22:48:17.773Z,15.50
2023-05-08T22:50:46.297Z,15.50
2023-05-08T22:53:14.858Z,15.60
2023-05-08T22:55:43.497Z,15.50
2023-05-08T22:58:12.132Z,15.40
2023-05-08T23:00:40.692Z,15.50
2023-05-08T23:03:10.619Z,15.40
2023-05-08T23:05:39.209Z,15.40
2023-05-08T23:08:07.865Z,15.40
2023-05-08T23:10:36.554Z,15.40
2023-05-08T23:13:05.071Z,15.40
2023-05-08T23:15:33.719Z,15.50
2023-05-08T23:18:02.518Z,15.40
2023-05-08T23:20:32.467Z,15.50
2023-05-08T23:23:00.991Z,15.30
2023-05-08T23:25:29.592Z,15.30
2023-05-08T23:27:58.176Z,15.30
2023-05-08T23:30:27.368Z,15.30
2023-05-08T23:32:55.986Z,15.40
2023-05-08T23:35:24.619Z,15.20
2023-05-08T23:37:54.579Z,15.20
2023-05-08T23:40:23.267Z,15.20
2023-05-08T23:42:52.056Z,15.20
2023-05-08T23:45:20.520Z,15.20
2023-05-08T23:47:49.283Z,15.20
2023-05-08T23:50:18.050Z,15.20
2023-05-08T23:52:46.570Z,15.10
2023-05-08T23:55:16.529Z,15.10
2023-05-08T23:57:45.012Z,15.10
